Time;durP1;ratioP1;P1;durP2;ratioP2;P2;SDS_P1;SDS_P2;PMS_P1;PMS_P2;Temp;Humidity;BMP_temperature;BMP_pressure;BME280_temperature;BME280_humidity;BME280_pressure;Samples;Min_cycle;Max_cycle;Signal;HPM_P1;HPM_P2
2023/10/29 00:01:01;;;;;;;0.30;0.30;;;;;;;;;;5058501;28;20021;-65
2023/10/29 00:03:26;;;;;;;2.20;0.50;;;;;;;;;;5060675;28;20655;-65
2023/10/29 00:05:51;;;;;;;0.10;0.10;;;;;;;;;;5062876;28;20387;-65
2023/10/29 00:08:16;;;;;;;0.10;0.10;;;;;;;;;;5059698;28;20385;-64
2023/10/29 00:10:42;;;;;;;0.10;0.10;;;;;;;;;;5062453;28;20350;-63
2023/10/29 00:13:07;;;;;;;0.40;0.33;;;;;;;;;;5063114;28;20265;-64
2023/10/29 00:15:33;;;;;;;0.10;0.10;;;;;;;;;;5058663;28;20099;-66
2023/10/29 00:17:58;;;;;;;0.20;0.20;;;;;;;;;;5061573;28;20024;-64
2023/10/29 00:20:24;;;;;;;0.50;0.43;;;;;;;;;;5056708;28;20149;-64
2023/10/29 00:22:49;;;;;;;0.93;0.70;;;;;;;;;;5065997;28;20019;-64
2023/10/29 00:25:15;;;;;;;0.13;0.13;;;;;;;;;;5064050;28;20661;-64
2023/10/29 00:27:40;;;;;;;0.30;0.30;;;;;;;;;;5057166;28;20477;-66
2023/10/29 00:30:05;;;;;;;0.20;0.20;;;;;;;;;;5057858;28;20024;-64
2023/10/29 00:32:31;;;;;;;0.10;0.10;;;;;;;;;;5058636;28;20031;-64
2023/10/29 00:34:57;;;;;;;0.67;0.63;;;;;;;;;;5061392;28;20110;-64
2023/10/29 00:37:22;;;;;;;0.10;0.10;;;;;;;;;;5061885;28;20487;-63
2023/10/29 00:39:47;;;;;;;0.10;0.10;;;;;;;;;;5060860;28;20024;-64
2023/10/29 00:42:12;;;;;;;0.13;0.13;;;;;;;;;;5058148;28;20024;-65
2023/10/29 00:44:38;;;;;;;0.10;0.10;;;;;;;;;;5058022;28;20112;-63
2023/10/29 00:47:05;;;;;;;0.77;0.40;;;;;;;;;;5061771;28;20032;-64
2023/10/29 00:49:30;;;;;;;0.10;0.10;;;;;;;;;;5060938;28;20467;-63
2023/10/29 00:51:55;;;;;;;0.40;0.40;;;;;;;;;;5057818;28;20135;-65
2023/10/29 00:54:21;;;;;;;0.10;0.10;;;;;;;;;;5060030;28;20028;-64
2023/10/29 00:56:46;;;;;;;0.10;0.10;;;;;;;;;;5061271;28;20054;-65
2023/10/29 00:59:12;;;;;;;0.40;0.30;;;;;;;;;;5061373;28;20027;-64
2023/10/29 01:01:38;;;;;;;0.20;0.20;;;;;;;;;;5061835;28;20033;-65
2023/10/29 01:04:04;;;;;;;0.17;0.17;;;;;;;;;;5061199;28;20286;-66
2023/10/29 01:06:30;;;;;;;0.23;0.23;;;;;;;;;;5059466;28;20033;-62
2023/10/29 01:08:55;;;;;;;0.37;0.33;;;;;;;;;;5057319;28;20534;-63
2023/10/29 01:11:21;;;;;;;0.57;0.40;;;;;;;;;;5062005;28;20096;-64
2023/10/29 01:13:46;;;;;;;0.20;0.20;;;;;;;;;;5060484;28;20070;-66
2023/10/29 01:16:11;;;;;;;0.87;0.40;;;;;;;;;;5061132;28;20022;-65
2023/10/29 01:18:36;;;;;;;1.40;0.30;;;;;;;;;;5057472;28;20017;-65
2023/10/29 01:21:01;;;;;;;0.10;0.10;;;;;;;;;;5059071;28;20028;-65
2023/10/29 01:23:31;;;;;;;0.27;0.20;;;;;;;;;;5060516;28;20033;-62
2023/10/29 01:25:57;;;;;;;0.10;0.10;;;;;;;;;;5055061;28;20027;-62
2023/10/29 01:28:23;;;;;;;0.67;0.30;;;;;;;;;;5057321;28;20412;-64
2023/10/29 01:30:49;;;;;;;0.17;0.17;;;;;;;;;;5058369;28;20094;-64
2023/10/29 01:33:14;;;;;;;0.20;0.20;;;;;;;;;;5061966;28;20039;-67
2023/10/29 01:35:39;;;;;;;0.10;0.10;;;;;;;;;;5061914;28;20024;-67
2023/10/29 01:38:04;;;;;;;0.20;0.20;;;;;;;;;;5056803;28;20053;-66
2023/10/29 01:40:29;;;;;;;0.10;0.10;;;;;;;;;;5056499;28;20032;-66
2023/10/29 01:42:55;;;;;;;0.20;0.20;;;;;;;;;;5058937;28;20032;-65
2023/10/29 01:45:20;;;;;;;0.10;0.10;;;;;;;;;;5058200;28;20091;-66
2023/10/29 01:47:45;;;;;;;0.10;0.10;;;;;;;;;;5059912;28;20516;-68
2023/10/29 01:50:10;;;;;;;0.10;0.10;;;;;;;;;;5057592;28;20401;-67
2023/10/29 01:52:37;;;;;;;0.20;0.20;;;;;;;;;;5059101;28;20037;-67
2023/10/29 01:55:02;;;;;;;0.10;0.10;;;;;;;;;;5060681;28;20025;-65
2023/10/29 01:57:28;;;;;;;0.10;0.10;;;;;;;;;;5061455;28;20379;-65
2023/10/29 01:59:53;;;;;;;0.20;0.20;;;;;;;;;;5058546;28;20377;-68
2023/10/29 02:02:18;;;;;;;0.10;0.10;;;;;;;;;;5060528;28;20579;-68
2023/10/29 02:04:43;;;;;;;0.20;0.20;;;;;;;;;;5057738;28;20571;-67
2023/10/29 02:07:08;;;;;;;0.20;0.20;;;;;;;;;;5060106;28;20449;-67
2023/10/29 02:09:34;;;;;;;0.10;0.10;;;;;;;;;;5059260;28;20028;-68
2023/10/29 02:11:59;;;;;;;0.10;0.10;;;;;;;;;;5055983;28;20413;-67
2023/10/29 02:14:24;;;;;;;0.00;0.00;;;;;;;;;;5058839;28;20355;-66
2023/10/29 02:16:49;;;;;;;0.20;0.20;;;;;;;;;;5054837;28;20043;-68
2023/10/29 02:19:15;;;;;;;0.10;0.10;;;;;;;;;;5058490;28;20464;-67
2023/10/29 02:21:40;;;;;;;0.30;0.30;;;;;;;;;;5062004;28;20036;-66
2023/10/29 02:24:06;;;;;;;0.40;0.40;;;;;;;;;;5061636;28;20035;-67
2023/10/29 02:26:31;;;;;;;0.57;0.20;;;;;;;;;;5061710;28;20033;-65
2023/10/29 02:28:56;;;;;;;0.10;0.10;;;;;;;;;;5064793;28;20114;-68
2023/10/29 02:31:21;;;;;;;0.10;0.10;;;;;;;;;;5062619;28;20348;-69
2023/10/29 02:33:47;;;;;;;0.37;0.27;;;;;;;;;;5063231;28;20483;-67
2023/10/29 02:36:13;;;;;;;0.20;0.20;;;;;;;;;;5057654;28;20116;-66
2023/10/29 02:38:38;;;;;;;0.30;0.30;;;;;;;;;;5059304;28;20049;-66
2023/10/29 02:41:06;;;;;;;0.10;0.10;;;;;;;;;;5061647;28;20103;-69
2023/10/29 02:43:32;;;;;;;0.00;0.00;;;;;;;;;;5060356;28;20048;-68
2023/10/29 02:45:57;;;;;;;0.63;0.47;;;;;;;;;;5062718;28;20110;-67
2023/10/29 02:48:24;;;;;;;0.20;0.20;;;;;;;;;;5061235;28;20024;-67
2023/10/29 02:50:50;;;;;;;0.00;0.00;;;;;;;;;;5058380;28;20031;-68
2023/10/29 02:53:15;;;;;;;0.10;0.10;;;;;;;;;;5064357;28;20388;-65
2023/10/29 02:55:40;;;;;;;0.10;0.10;;;;;;;;;;5062409;28;20607;-68
2023/10/29 02:58:05;;;;;;;0.30;0.27;;;;;;;;;;5060374;28;20025;-67
2023/10/29 03:00:31;;;;;;;0.10;0.10;;;;;;;;;;5062357;28;20048;-67
2023/10/29 03:02:56;;;;;;;0.27;0.20;;;;;;;;;;5064826;28;20072;-68
2023/10/29 03:05:21;;;;;;;0.10;0.10;;;;;;;;;;5062758;28;20091;-67
2023/10/29 03:07:46;;;;;;;0.23;0.17;;;;;;;;;;5058542;28;20020;-67
2023/10/29 03:10:12;;;;;;;0.10;0.10;;;;;;;;;;5059853;28;20021;-67
2023/10/29 03:12:37;;;;;;;0.20;0.20;;;;;;;;;;5063514;28;20997;-67
2023/10/29 03:15:02;;;;;;;0.10;0.10;;;;;;;;;;5059547;28;20078;-67
2023/10/29 03:17:27;;;;;;;0.20;0.20;;;;;;;;;;5064090;28;20452;-67
2023/10/29 03:19:53;;;;;;;0.10;0.10;;;;;;;;;;5059927;28;20064;-68
2023/10/29 03:22:18;;;;;;;0.10;0.10;;;;;;;;;;5063141;28;20028;-67
2023/10/29 03:24:43;;;;;;;0.20;0.20;;;;;;;;;;5063906;28;20024;-65
2023/10/29 03:27:08;;;;;;;0.10;0.10;;;;;;;;;;5059892;28;20111;-69
2023/10/29 03:29:33;;;;;;;0.20;0.20;;;;;;;;;;5059379;28;20059;-68
2023/10/29 03:31:59;;;;;;;0.20;0.20;;;;;;;;;;5055210;28;20111;-66
2023/10/29 03:34:24;;;;;;;0.10;0.10;;;;;;;;;;5059219;28;20103;-66
2023/10/29 03:36:49;;;;;;;0.13;0.13;;;;;;;;;;5062350;28;20012;-67
2023/10/29 03:39:16;;;;;;;0.13;0.10;;;;;;;;;;5062399;28;20106;-67
2023/10/29 03:41:41;;;;;;;0.10;0.10;;;;;;;;;;5063416;28;20017;-67
2023/10/29 03:44:07;;;;;;;0.00;0.00;;;;;;;;;;5057477;28;20093;-68
2023/10/29 03:46:32;;;;;;;0.10;0.10;;;;;;;;;;5059804;28;20323;-69
2023/10/29 03:48:57;;;;;;;0.10;0.10;;;;;;;;;;5061673;28;20409;-68
2023/10/29 03:51:25;;;;;;;0.10;0.10;;;;;;;;;;5062949;28;20419;-67
2023/10/29 03:53:50;;;;;;;0.30;0.20;;;;;;;;;;5061835;28;20457;-68
2023/10/29 03:56:15;;;;;;;0.03;0.03;;;;;;;;;;5061206;28;20029;-68
2023/10/29 03:58:41;;;;;;;0.10;0.10;;;;;;;;;;5055253;28;20059;-68
2023/10/29 04:01:06;;;;;;;0.20;0.20;;;;;;;;;;5058506;28;20074;-68
2023/10/29 04:03:31;;;;;;;0.10;0.10;;;;;;;;;;5062379;28;20067;-68
2023/10/29 04:05:56;;;;;;;0.27;0.10;;;;;;;;;;5060664;28;20366;-67
2023/10/29 04:08:22;;;;;;;0.87;0.63;;;;;;;;;;5061854;28;20105;-67
2023/10/29 04:10:47;;;;;;;0.13;0.13;;;;;;;;;;5063148;28;21209;-68
2023/10/29 04:13:12;;;;;;;0.00;0.00;;;;;;;;;;5062819;28;20024;-68
2023/10/29 04:15:38;;;;;;;0.50;0.40;;;;;;;;;;5059602;28;20025;-67
2023/10/29 04:18:03;;;;;;;0.10;0.10;;;;;;;;;;5060644;28;20491;-67
2023/10/29 04:20:28;;;;;;;0.10;0.10;;;;;;;;;;5061156;28;20029;-67
2023/10/29 04:22:54;;;;;;;0.83;0.30;;;;;;;;;;5060854;28;20032;-67
2023/10/29 04:25:19;;;;;;;0.10;0.10;;;;;;;;;;5060060;28;20024;-67
2023/10/29 04:27:45;;;;;;;0.00;0.00;;;;;;;;;;5064395;28;20093;-67
2023/10/29 04:30:10;;;;;;;1.40;0.57;;;;;;;;;;5062484;28;20469;-67
2023/10/29 04:32:35;;;;;;;0.00;0.00;;;;;;;;;;5061119;28;20029;-66
2023/10/29 04:35:00;;;;;;;0.10;0.10;;;;;;;;;;5059156;28;20184;-67
2023/10/29 04:37:26;;;;;;;0.10;0.10;;;;;;;;;;5059765;28;20483;-67
2023/10/29 04:39:51;;;;;;;0.07;0.07;;;;;;;;;;5063018;28;20032;-67
2023/10/29 04:42:16;;;;;;;0.10;0.10;;;;;;;;;;5057470;28;20690;-67
2023/10/29 04:44:42;;;;;;;19.63;2.00;;;;;;;;;;5060580;28;20043;-66
2023/10/29 04:47:07;;;;;;;0.10;0.10;;;;;;;;;;5060688;28;20020;-66
2023/10/29 04:49:33;;;;;;;0.30;0.30;;;;;;;;;;5058442;28;20355;-66
2023/10/29 04:51:58;;;;;;;0.37;0.27;;;;;;;;;;5061688;28;20031;-67
2023/10/29 04:54:23;;;;;;;0.30;0.30;;;;;;;;;;5061296;28;20028;-67
2023/10/29 04:56:48;;;;;;;0.13;0.13;;;;;;;;;;5062203;28;20032;-67
2023/10/29 04:59:14;;;;;;;0.13;0.13;;;;;;;;;;5060182;28;20096;-66
2023/10/29 05:01:39;;;;;;;0.10;0.10;;;;;;;;;;5062032;28;20234;-66
2023/10/29 05:04:04;;;;;;;0.10;0.10;;;;;;;;;;5059532;28;20060;-67
2023/10/29 05:06:30;;;;;;;0.07;0.07;;;;;;;;;;5059034;28;20036;-67
2023/10/29 05:08:56;;;;;;;0.00;0.00;;;;;;;;;;5057719;28;20555;-67
2023/10/29 05:11:22;;;;;;;0.03;0.03;;;;;;;;;;5054847;28;20052;-67
2023/10/29 05:13:47;;;;;;;0.10;0.10;;;;;;;;;;5059212;28;20024;-67
2023/10/29 05:16:12;;;;;;;0.00;0.00;;;;;;;;;;5058628;28;20170;-66
2023/10/29 05:18:37;;;;;;;2.50;1.00;;;;;;;;;;5054639;28;20092;-66
2023/10/29 05:21:03;;;;;;;2.20;1.00;;;;;;;;;;5059701;28;20026;-67
2023/10/29 05:23:29;;;;;;;2.50;1.10;;;;;;;;;;5059175;28;20060;-68
2023/10/29 05:25:54;;;;;;;2.77;1.00;;;;;;;;;;5059981;28;20024;-67
2023/10/29 05:28:19;;;;;;;3.83;1.27;;;;;;;;;;5060842;28;20024;-68
2023/10/29 05:30:44;;;;;;;5.40;1.00;;;;;;;;;;5057503;28;20052;-69
2023/10/29 05:33:10;;;;;;;4.22;1.15;;;;;;;;;;5060113;28;20071;-68
2023/10/29 05:35:35;;;;;;;6.15;1.10;;;;;;;;;;5059734;28;20060;-68
2023/10/29 05:38:00;;;;;;;2.40;1.00;;;;;;;;;;5043183;28;20355;-68
2023/10/29 05:40:25;;;;;;;3.47;1.00;;;;;;;;;;5057640;28;20051;-68
2023/10/29 05:42:52;;;;;;;3.88;1.10;;;;;;;;;;5060471;28;20047;-67
2023/10/29 05:45:17;;;;;;;4.78;1.13;;;;;;;;;;5058388;28;20037;-67
2023/10/29 05:47:42;;;;;;;4.00;1.10;;;;;;;;;;5059650;28;20381;-67
2023/10/29 05:50:08;;;;;;;5.65;1.10;;;;;;;;;;5057465;28;20064;-68
2023/10/29 05:52:33;;;;;;;2.85;1.00;;;;;;;;;;5059539;28;20086;-68
2023/10/29 05:55:02;;;;;;;3.50;1.10;;;;;;;;;;5061838;28;20238;-68
2023/10/29 05:57:27;;;;;;;2.45;0.93;;;;;;;;;;5062628;28;20375;-68
2023/10/29 05:59:52;;;;;;;4.15;1.02;;;;;;;;;;5061279;28;20107;-67
2023/10/29 06:02:18;;;;;;;2.95;0.90;;;;;;;;;;5063201;28;20036;-68
2023/10/29 06:04:43;;;;;;;4.15;1.30;;;;;;;;;;5061284;28;20036;-68
2023/10/29 06:07:08;;;;;;;3.10;1.08;;;;;;;;;;5063948;28;20036;-67
2023/10/29 06:09:34;;;;;;;4.25;0.90;;;;;;;;;;5057773;28;20025;-67
2023/10/29 06:11:59;;;;;;;3.87;1.10;;;;;;;;;;5065147;28;20268;-68
2023/10/29 06:14:24;;;;;;;4.70;1.13;;;;;;;;;;5063119;28;20120;-65
2023/10/29 06:16:55;;;;;;;4.83;1.10;;;;;;;;;;5058792;28;20085;-64
2023/10/29 06:19:21;;;;;;;6.30;1.10;;;;;;;;;;5061505;28;20021;-63
2023/10/29 06:21:46;;;;;;;1.87;0.70;;;;;;;;;;5063673;28;20610;-64
2023/10/29 06:24:11;;;;;;;3.55;1.00;;;;;;;;;;5063953;28;20031;-63
2023/10/29 06:26:36;;;;;;;3.33;0.90;;;;;;;;;;5063628;28;20381;-65
2023/10/29 06:29:02;;;;;;;4.03;0.93;;;;;;;;;;5056348;28;20510;-63
2023/10/29 06:31:28;;;;;;;1.93;0.80;;;;;;;;;;5055569;28;20649;-63
2023/10/29 06:33:53;;;;;;;4.80;0.97;;;;;;;;;;5055806;28;20226;-65
2023/10/29 06:36:19;;;;;;;4.90;1.00;;;;;;;;;;5061277;28;20133;-63
2023/10/29 06:38:44;;;;;;;2.53;0.90;;;;;;;;;;5059969;28;20018;-63
2023/10/29 06:41:09;;;;;;;3.07;0.97;;;;;;;;;;5063073;28;20033;-65
2023/10/29 06:43:34;;;;;;;3.37;0.80;;;;;;;;;;5060712;28;20025;-64
2023/10/29 06:46:00;;;;;;;4.07;1.45;;;;;;;;;;5056816;28;20028;-63
2023/10/29 06:48:25;;;;;;;4.40;1.20;;;;;;;;;;5060383;28;20208;-65
2023/10/29 06:50:50;;;;;;;2.60;0.70;;;;;;;;;;5062841;28;20246;-63
2023/10/29 06:53:15;;;;;;;4.35;0.88;;;;;;;;;;5061038;28;20561;-64
2023/10/29 06:55:42;;;;;;;4.28;0.95;;;;;;;;;;5057876;28;20441;-64
2023/10/29 06:58:07;;;;;;;3.05;0.70;;;;;;;;;;5058695;28;20047;-65
2023/10/29 07:00:32;;;;;;;3.30;0.82;;;;;;;;;;5062678;28;20388;-65
2023/10/29 07:02:57;;;;;;;3.67;0.90;;;;;;;;;;5060660;28;20432;-64
2023/10/29 07:05:23;;;;;;;2.05;0.93;;;;;;;;;;5060061;28;20044;-64
2023/10/29 07:07:48;;;;;;;3.30;0.80;;;;;;;;;;5057934;28;20078;-65
2023/10/29 07:10:13;;;;;;;4.55;0.60;;;;;;;;;;5066097;28;20086;-64
2023/10/29 07:12:38;;;;;;;1.42;0.80;;;;;;;;;;5065365;28;20019;-65
2023/10/29 07:15:04;;;;;;;2.33;0.70;;;;;;;;;;5065704;28;20028;-66
2023/10/29 07:17:29;;;;;;;7.03;0.77;;;;;;;;;;5065263;28;20033;-65
2023/10/29 07:19:54;;;;;;;2.97;0.90;;;;;;;;;;5065819;28;20436;-64
2023/10/29 07:22:20;;;;;;;1.10;0.57;;;;;;;;;;5061429;28;20111;-65
2023/10/29 07:24:45;;;;;;;2.72;0.90;;;;;;;;;;5065275;28;20029;-69
2023/10/29 07:27:10;;;;;;;3.67;0.80;;;;;;;;;;5061820;28;20021;-69
2023/10/29 07:29:36;;;;;;;3.63;0.70;;;;;;;;;;5064358;28;20066;-68
2023/10/29 07:32:01;;;;;;;1.77;0.60;;;;;;;;;;5064097;28;20032;-67
2023/10/29 07:34:26;;;;;;;1.42;0.70;;;;;;;;;;5063721;28;20032;-69
2023/10/29 07:36:51;;;;;;;3.80;0.88;;;;;;;;;;5062129;28;20063;-68
2023/10/29 07:39:16;;;;;;;2.42;0.80;;;;;;;;;;5059376;28;20124;-68
2023/10/29 07:41:42;;;;;;;3.97;0.80;;;;;;;;;;5063045;28;20173;-70
2023/10/29 07:44:07;;;;;;;4.60;0.80;;;;;;;;;;5063953;28;20032;-69
2023/10/29 07:46:32;;;;;;;2.20;0.70;;;;;;;;;;5060243;28;20024;-69
2023/10/29 07:48:57;;;;;;;2.65;0.70;;;;;;;;;;5058713;28;20153;-69
2023/10/29 07:51:23;;;;;;;2.47;0.82;;;;;;;;;;5061733;28;20086;-69
2023/10/29 07:53:49;;;;;;;1.88;0.60;;;;;;;;;;5062686;28;20024;-69
2023/10/29 07:56:15;;;;;;;2.25;0.70;;;;;;;;;;5065233;28;20028;-68
2023/10/29 07:58:41;;;;;;;1.65;0.63;;;;;;;;;;5062079;28;20385;-67
2023/10/29 08:01:10;;;;;;;1.98;0.80;;;;;;;;;;5061081;28;20034;-68
2023/10/29 08:03:35;;;;;;;3.67;0.80;;;;;;;;;;5063219;28;20094;-71
2023/10/29 08:06:00;;;;;;;2.00;0.70;;;;;;;;;;5063307;28;20464;-69
2023/10/29 08:08:26;;;;;;;2.80;0.60;;;;;;;;;;5060568;28;20193;-69
2023/10/29 08:10:51;;;;;;;3.33;0.82;;;;;;;;;;5062341;28;20024;-68
2023/10/29 08:13:16;;;;;;;1.63;0.50;;;;;;;;;;5059219;28;20396;-69
2023/10/29 08:15:42;;;;;;;2.75;0.80;;;;;;;;;;5059429;28;20103;-66
2023/10/29 08:18:07;;;;;;;3.78;0.80;;;;;;;;;;5058925;28;20450;-71
2023/10/29 08:20:32;;;;;;;5.35;0.68;;;;;;;;;;5059074;28;20028;-69
2023/10/29 08:22:57;;;;;;;3.35;0.80;;;;;;;;;;5057081;28;20028;-68
2023/10/29 08:25:23;;;;;;;1.83;0.70;;;;;;;;;;5058224;28;20060;-71
2023/10/29 08:27:48;;;;;;;1.33;0.50;;;;;;;;;;5064971;28;20286;-67
2023/10/29 08:30:13;;;;;;;2.90;0.90;;;;;;;;;;5063237;28;20040;-69
2023/10/29 08:32:38;;;;;;;4.13;0.90;;;;;;;;;;5065432;28;20159;-68
2023/10/29 08:35:06;;;;;;;5.32;0.80;;;;;;;;;;5069262;28;20481;-69
2023/10/29 08:37:33;;;;;;;4.80;0.80;;;;;;;;;;5065860;28;20473;-70
2023/10/29 08:39:59;;;;;;;3.67;0.77;;;;;;;;;;5063197;28;20036;-67
2023/10/29 08:42:24;;;;;;;2.95;0.75;;;;;;;;;;5057270;28;20034;-70
2023/10/29 08:44:54;;;;;;;4.53;1.33;;;;;;;;;;5065615;28;20756;-70
2023/10/29 08:47:19;;;;;;;3.33;0.80;;;;;;;;;;5062926;28;20035;-67
2023/10/29 08:49:45;;;;;;;5.15;0.80;;;;;;;;;;5057292;28;20025;-66
2023/10/29 08:52:13;;;;;;;5.07;1.30;;;;;;;;;;5057670;28;20020;-70
2023/10/29 08:54:39;;;;;;;2.45;0.90;;;;;;;;;;5062840;28;20473;-67
2023/10/29 08:57:04;;;;;;;3.83;0.90;;;;;;;;;;5062623;28;20025;-66
2023/10/29 08:59:29;;;;;;;2.40;0.80;;;;;;;;;;5064656;28;20033;-66
2023/10/29 09:01:55;;;;;;;2.58;0.90;;;;;;;;;;5061494;28;20028;-65
2023/10/29 09:04:22;;;;;;;5.53;0.90;;;;;;;;;;5058157;28;20158;-69
2023/10/29 09:06:47;;;;;;;2.22;0.80;;;;;;;;;;5064863;28;20499;-68
2023/10/29 09:09:12;;;;;;;5.75;1.00;;;;;;;;;;5069614;28;20012;-69
2023/10/29 09:11:38;;;;;;;6.90;1.00;;;;;;;;;;5065076;28;20468;-70
2023/10/29 09:14:04;;;;;;;4.65;1.08;;;;;;;;;;5065325;28;20492;-72
2023/10/29 09:16:29;;;;;;;3.85;0.90;;;;;;;;;;5064651;28;20031;-71
2023/10/29 09:18:55;;;;;;;4.15;1.10;;;;;;;;;;5068560;28;20024;-69
2023/10/29 09:21:20;;;;;;;4.85;1.20;;;;;;;;;;5066398;28;20029;-72
2023/10/29 09:23:45;;;;;;;7.47;2.17;;;;;;;;;;5063943;28;20056;-68
2023/10/29 09:26:10;;;;;;;4.65;1.70;;;;;;;;;;5065534;28;20063;-70
2023/10/29 09:28:36;;;;;;;4.65;1.30;;;;;;;;;;5066741;28;20036;-71
2023/10/29 09:31:03;;;;;;;7.18;1.60;;;;;;;;;;5067618;28;20043;-70
2023/10/29 09:33:29;;;;;;;4.05;1.40;;;;;;;;;;5064591;28;20284;-70
2023/10/29 09:35:54;;;;;;;3.88;1.00;;;;;;;;;;5063074;28;20389;-69
2023/10/29 09:38:20;;;;;;;5.68;1.60;;;;;;;;;;5064423;28;20485;-68
2023/10/29 09:40:46;;;;;;;3.78;1.10;;;;;;;;;;5070628;28;20026;-68
2023/10/29 09:43:12;;;;;;;5.32;1.00;;;;;;;;;;5068208;28;20028;-69
2023/10/29 09:45:39;;;;;;;5.07;1.08;;;;;;;;;;5047370;28;20082;-64
2023/10/29 09:48:04;;;;;;;2.38;0.60;;;;;;;;;;5067038;28;20027;-68
2023/10/29 09:50:30;;;;;;;3.88;0.95;;;;;;;;;;5068446;28;20470;-61
2023/10/29 09:52:57;;;;;;;17.73;1.60;;;;;;;;;;5066604;28;20543;-63
2023/10/29 09:55:23;;;;;;;6.28;1.00;;;;;;;;;;5060218;28;20423;-64
2023/10/29 09:57:49;;;;;;;3.80;1.00;;;;;;;;;;5062076;28;20036;-66
2023/10/29 10:00:17;;;;;;;3.22;0.77;;;;;;;;;;5068027;28;20031;-64
2023/10/29 10:02:52;;;;;;;4.65;1.10;;;;;;;;;;5074415;28;20067;-67
2023/10/29 10:05:18;;;;;;;2.88;0.80;;;;;;;;;;5083731;28;20119;-62
2023/10/29 10:07:43;;;;;;;5.32;0.90;;;;;;;;;;5083892;28;20111;-62
2023/10/29 10:10:09;;;;;;;4.95;1.13;;;;;;;;;;5083356;28;20069;-65
2023/10/29 10:12:43;;;;;;;4.38;0.90;;;;;;;;;;5084417;28;20150;-65
2023/10/29 10:15:09;;;;;;;7.85;1.30;;;;;;;;;;5081570;28;20024;-65
2023/10/29 10:17:35;;;;;;;4.53;1.17;;;;;;;;;;5083104;28;20024;-64
2023/10/29 10:20:07;;;;;;;4.32;1.05;;;;;;;;;;5083827;28;20027;-63
2023/10/29 10:22:35;;;;;;;4.43;0.93;;;;;;;;;;5082347;28;20392;-65
2023/10/29 10:25:00;;;;;;;5.57;1.10;;;;;;;;;;5081532;28;20020;-63
2023/10/29 10:27:26;;;;;;;4.72;0.95;;;;;;;;;;5082061;28;20552;-63
2023/10/29 10:29:51;;;;;;;6.43;1.50;;;;;;;;;;5084691;28;20481;-64
2023/10/29 10:32:22;;;;;;;5.25;1.00;;;;;;;;;;5082548;28;20388;-64
2023/10/29 10:34:50;;;;;;;6.50;1.25;;;;;;;;;;5081591;28;20217;-65
2023/10/29 10:37:16;;;;;;;6.40;2.28;;;;;;;;;;5082023;28;20085;-64
2023/10/29 10:39:41;;;;;;;7.18;1.30;;;;;;;;;;5085011;28;20103;-67
2023/10/29 10:42:06;;;;;;;3.40;1.20;;;;;;;;;;5084615;28;20358;-68
2023/10/29 10:44:32;;;;;;;6.57;1.50;;;;;;;;;;5084055;28;20667;-66
2023/10/29 10:46:59;;;;;;;6.22;1.67;;;;;;;;;;5085059;28;20028;-64
2023/10/29 10:49:24;;;;;;;2.22;0.93;;;;;;;;;;5078952;28;20069;-64
2023/10/29 10:51:54;;;;;;;7.60;1.50;;;;;;;;;;5080354;28;20025;-67
2023/10/29 10:54:20;;;;;;;7.15;1.45;;;;;;;;;;5084333;28;20016;-68
2023/10/29 10:56:46;;;;;;;5.20;1.17;;;;;;;;;;5082054;28;20504;-71
2023/10/29 10:59:12;;;;;;;4.00;1.20;;;;;;;;;;5080618;28;20635;-72
2023/10/29 11:01:38;;;;;;;5.25;1.30;;;;;;;;;;5079344;28;20016;-70
2023/10/29 11:04:04;;;;;;;3.20;1.15;;;;;;;;;;5062076;28;20058;-67
2023/10/29 11:06:30;;;;;;;5.85;1.20;;;;;;;;;;5066289;28;20016;-71
2023/10/29 11:08:55;;;;;;;5.97;1.50;;;;;;;;;;5058930;28;20021;-66
2023/10/29 11:11:24;;;;;;;6.22;1.02;;;;;;;;;;5055525;28;20025;-67
2023/10/29 11:13:50;;;;;;;4.70;1.02;;;;;;;;;;5065219;28;20468;-67
2023/10/29 11:16:22;;;;;;;4.03;1.20;;;;;;;;;;5062918;28;20082;-72
2023/10/29 11:18:48;;;;;;;7.90;1.88;;;;;;;;;;5063248;28;20457;-68
2023/10/29 11:21:29;;;;;;;6.05;1.35;;;;;;;;;;5061760;28;20074;-70
2023/10/29 11:24:14;;;;;;;6.30;1.10;;;;;;;;;;5061345;28;20024;-70
2023/10/29 11:26:39;;;;;;;1.95;0.85;;;;;;;;;;5059366;28;20377;-68
2023/10/29 11:29:05;;;;;;;4.57;1.02;;;;;;;;;;5053329;28;20017;-70
2023/10/29 11:31:30;;;;;;;6.47;1.50;;;;;;;;;;5055742;28;20028;-68
2023/10/29 11:33:55;;;;;;;5.55;1.27;;;;;;;;;;5058991;28;20120;-72
2023/10/29 11:36:38;;;;;;;2.58;1.02;;;;;;;;;;5059000;28;20016;-68
2023/10/29 11:39:15;;;;;;;3.78;1.17;;;;;;;;;;5055085;28;20102;-67
2023/10/29 11:41:41;;;;;;;5.90;1.38;;;;;;;;;;5057117;28;20039;-69
2023/10/29 11:44:15;;;;;;;3.17;1.08;;;;;;;;;;5057822;28;20500;-68
2023/10/29 11:46:56;;;;;;;4.38;1.13;;;;;;;;;;5058273;28;20020;-70
2023/10/29 11:49:25;;;;;;;3.83;1.10;;;;;;;;;;5057278;28;20428;-67
2023/10/29 11:52:03;;;;;;;7.28;1.70;;;;;;;;;;5062196;28;20258;-70
2023/10/29 11:54:29;;;;;;;4.30;1.13;;;;;;;;;;5058338;28;20016;-67
2023/10/29 11:56:57;;;;;;;3.92;0.98;;;;;;;;;;5060924;28;20023;-68
2023/10/29 11:59:22;;;;;;;4.97;1.00;;;;;;;;;;5054756;28;20512;-69
2023/10/29 12:01:48;;;;;;;4.82;1.17;;;;;;;;;;5057625;28;20024;-67
2023/10/29 12:04:13;;;;;;;3.03;0.90;;;;;;;;;;5058932;28;20063;-67
2023/10/29 12:06:38;;;;;;;8.52;1.00;;;;;;;;;;5059748;28;20036;-68
2023/10/29 12:09:13;;;;;;;4.63;1.25;;;;;;;;;;5057925;28;20036;-66
2023/10/29 12:11:38;;;;;;;5.40;2.33;;;;;;;;;;5059662;28;20419;-69
2023/10/29 12:14:03;;;;;;;7.00;1.00;;;;;;;;;;5056348;28;20107;-68
2023/10/29 12:16:30;;;;;;;3.92;0.93;;;;;;;;;;5056701;28;20089;-67
2023/10/29 12:18:56;;;;;;;3.20;1.13;;;;;;;;;;5060344;28;20034;-67
2023/10/29 12:21:21;;;;;;;3.75;1.05;;;;;;;;;;5052048;28;20020;-69
2023/10/29 12:23:46;;;;;;;3.67;0.88;;;;;;;;;;5054720;28;20074;-68
2023/10/29 12:26:13;;;;;;;4.10;1.25;;;;;;;;;;5057877;28;20384;-69
2023/10/29 12:28:38;;;;;;;4.22;1.10;;;;;;;;;;5058658;28;20182;-70
2023/10/29 12:31:03;;;;;;;4.03;1.40;;;;;;;;;;5057809;28;20104;-69
2023/10/29 12:33:31;;;;;;;3.47;1.00;;;;;;;;;;5058455;28;20429;-67
2023/10/29 12:36:01;;;;;;;6.65;0.95;;;;;;;;;;5058289;28;20543;-70
2023/10/29 12:38:26;;;;;;;8.00;1.20;;;;;;;;;;5056992;28;20044;-67
2023/10/29 12:41:00;;;;;;;3.38;0.70;;;;;;;;;;5056174;28;20024;-66
2023/10/29 12:43:38;;;;;;;4.38;0.88;;;;;;;;;;5055893;28;20552;-70
2023/10/29 12:46:05;;;;;;;4.75;1.15;;;;;;;;;;5058473;28;20119;-67
2023/10/29 12:48:30;;;;;;;3.40;0.85;;;;;;;;;;5059133;28;20025;-69
2023/10/29 12:50:56;;;;;;;6.65;1.13;;;;;;;;;;5056546;28;20489;-71
2023/10/29 12:53:21;;;;;;;3.45;1.00;;;;;;;;;;5055527;28;20638;-67
2023/10/29 12:55:46;;;;;;;3.90;0.90;;;;;;;;;;5054045;28;20381;-70
2023/10/29 12:58:12;;;;;;;3.28;0.73;;;;;;;;;;5058481;28;20040;-68
2023/10/29 13:00:37;;;;;;;6.70;1.00;;;;;;;;;;5058950;28;20024;-69
2023/10/29 13:03:04;;;;;;;4.55;0.90;;;;;;;;;;5053751;28;20044;-70
2023/10/29 13:05:30;;;;;;;5.30;1.00;;;;;;;;;;5057253;28;20441;-69
2023/10/29 13:07:57;;;;;;;5.07;0.95;;;;;;;;;;5059510;28;20043;-69
2023/10/29 13:10:22;;;;;;;6.57;0.90;;;;;;;;;;5058331;28;20048;-70
2023/10/29 13:12:48;;;;;;;8.02;1.30;;;;;;;;;;5056036;28;20071;-71
2023/10/29 13:15:15;;;;;;;4.82;1.08;;;;;;;;;;5058991;28;20024;-67
2023/10/29 13:17:40;;;;;;;4.50;1.20;;;;;;;;;;5057814;28;20452;-66
2023/10/29 13:20:07;;;;;;;3.33;0.85;;;;;;;;;;5056842;28;20111;-68
2023/10/29 13:22:32;;;;;;;2.47;0.82;;;;;;;;;;5053906;28;20512;-64
2023/10/29 13:24:58;;;;;;;5.38;0.85;;;;;;;;;;5056524;28;20032;-67
2023/10/29 13:27:25;;;;;;;6.10;0.93;;;;;;;;;;5056034;28;20090;-67
2023/10/29 13:29:50;;;;;;;3.88;1.00;;;;;;;;;;5058993;28;20028;-64
2023/10/29 13:32:15;;;;;;;5.25;1.65;;;;;;;;;;5055677;28;20372;-66
2023/10/29 13:34:41;;;;;;;3.78;0.80;;;;;;;;;;5059951;28;20052;-67
2023/10/29 13:37:06;;;;;;;5.68;0.70;;;;;;;;;;5057201;28;20078;-66
2023/10/29 13:39:31;;;;;;;4.57;0.88;;;;;;;;;;5060555;28;20024;-66
2023/10/29 13:41:56;;;;;;;5.00;0.90;;;;;;;;;;5054308;28;20039;-67
2023/10/29 13:44:23;;;;;;;7.72;0.93;;;;;;;;;;5060534;28;20024;-67
2023/10/29 13:46:48;;;;;;;5.95;1.25;;;;;;;;;;5057647;28;20028;-65
2023/10/29 13:49:13;;;;;;;5.05;0.80;;;;;;;;;;5059737;28;20591;-67
2023/10/29 13:51:41;;;;;;;1.88;0.70;;;;;;;;;;5057907;28;20377;-66
2023/10/29 13:54:08;;;;;;;3.60;1.00;;;;;;;;;;5059043;28;20051;-65
2023/10/29 13:56:33;;;;;;;4.32;0.80;;;;;;;;;;5055605;28;20469;-64
2023/10/29 13:58:59;;;;;;;4.25;0.90;;;;;;;;;;5059214;28;20013;-67
2023/10/29 14:01:24;;;;;;;5.97;0.90;;;;;;;;;;5059320;28;20135;-67
2023/10/29 14:03:50;;;;;;;3.35;0.80;;;;;;;;;;5057316;28;20040;-65
2023/10/29 14:06:16;;;;;;;2.17;0.70;;;;;;;;;;5059471;28;20016;-68
2023/10/29 14:08:41;;;;;;;2.25;0.60;;;;;;;;;;5058376;28;20044;-67
2023/10/29 14:11:06;;;;;;;2.33;0.70;;;;;;;;;;5055502;28;20074;-65
2023/10/29 14:13:32;;;;;;;3.40;0.80;;;;;;;;;;5054981;28;20054;-68
2023/10/29 14:15:57;;;;;;;3.42;0.82;;;;;;;;;;5060771;28;20020;-67
2023/10/29 14:18:23;;;;;;;3.25;0.70;;;;;;;;;;5063941;28;20026;-64
2023/10/29 14:20:49;;;;;;;3.55;1.08;;;;;;;;;;5062046;28;20032;-66
2023/10/29 14:23:14;;;;;;;3.40;0.90;;;;;;;;;;5059448;28;20069;-67
2023/10/29 14:25:39;;;;;;;3.40;0.70;;;;;;;;;;5063749;28;20518;-66
2023/10/29 14:28:04;;;;;;;5.15;1.00;;;;;;;;;;5059967;28;20097;-66
2023/10/29 14:30:30;;;;;;;4.13;0.98;;;;;;;;;;5065765;28;20024;-67
2023/10/29 14:32:55;;;;;;;2.65;0.85;;;;;;;;;;5056349;28;20139;-67
2023/10/29 14:35:20;;;;;;;3.13;1.00;;;;;;;;;;5059493;28;20518;-66